Time;durP1;ratioP1;P1;durP2;ratioP2;P2;SDS_P1;SDS_P2;PMS_P1;PMS_P2;Temp;Humidity;BMP_temperature;BMP_pressure;BME280_temperature;BME280_humidity;BME280_pressure;Samples;Min_cycle;Max_cycle;Signal;HPM_P1;HPM_P2
2022/07/12 00:00:08;;;;;;;;;;;;;;;15.60;72.27;97533.88;30001;983;1875;-57
2022/07/12 00:00:39;;;;;;;;;;;;;;;15.59;72.59;97527.62;30001;983;1875;-58
2022/07/12 00:01:10;;;;;;;;;;;;;;;15.60;72.35;97533.88;30001;983;1781;-58
2022/07/12 00:01:41;;;;;;;;;;;;;;;15.60;72.39;97528.41;30001;983;1862;-58
2022/07/12 00:02:12;;;;;;;;;;;;;;;15.60;72.82;97529.22;30001;983;1866;-58
2022/07/12 00:02:43;;;;;;;;;;;;;;;15.59;72.62;97535.03;30001;983;1875;-58
2022/07/12 00:03:14;;;;;;;;;;;;;;;15.57;72.66;97534.53;30001;983;1875;-57
2022/07/12 00:03:45;;;;;;;;;;;;;;;15.56;73.54;97530.16;30001;983;1875;-57
2022/07/12 00:04:16;;;;;;;;;;;;;;;15.53;73.57;97533.50;30001;983;1875;-57
2022/07/12 00:04:47;;;;;;;;;;;;;;;15.50;73.05;97529.44;30001;983;1875;-57
2022/07/12 00:05:18;;;;;;;;;;;;;;;15.50;72.81;97531.37;30001;982;1779;-57
2022/07/12 00:05:49;;;;;;;;;;;;;;;15.50;72.91;97534.13;30001;982;1875;-58
2022/07/12 00:06:19;;;;;;;;;;;;;;;15.50;72.72;97534.13;30001;982;1875;-58
2022/07/12 00:06:50;;;;;;;;;;;;;;;15.49;72.60;97541.50;30001;982;1862;-57
2022/07/12 00:07:21;;;;;;;;;;;;;;;15.50;72.91;97534.91;30001;982;1867;-58
2022/07/12 00:07:52;;;;;;;;;;;;;;;15.50;73.02;97539.59;30001;983;1875;-57
2022/07/12 00:08:23;;;;;;;;;;;;;;;15.50;72.71;97542.31;30001;983;1875;-57
2022/07/12 00:08:54;;;;;;;;;;;;;;;15.50;72.73;97539.59;30001;983;1875;-57
2022/07/12 00:09:25;;;;;;;;;;;;;;;15.50;73.08;97539.59;30001;983;1875;-57
2022/07/12 00:09:56;;;;;;;;;;;;;;;15.47;73.68;97542.94;30001;983;1875;-58
2022/07/12 00:10:27;;;;;;;;;;;;;;;15.45;73.18;97547.91;30001;983;1875;-57
2022/07/12 00:10:58;;;;;;;;;;;;;;;15.44;72.82;97547.09;30001;983;1875;-58
2022/07/12 00:11:29;;;;;;;;;;;;;;;15.45;73.02;97547.91;30001;983;1875;-57
2022/07/12 00:12:00;;;;;;;;;;;;;;;15.43;74.22;97551.75;30001;982;1862;-58
2022/07/12 00:12:30;;;;;;;;;;;;;;;15.39;74.11;97545.28;30001;982;1867;-58
2022/07/12 00:13:03;;;;;;;;;;;;;;;15.35;74.63;97549.75;30001;982;1875;-58
2022/07/12 00:13:34;;;;;;;;;;;;;;;15.32;75.04;97555.81;30001;982;1862;-57
2022/07/12 00:14:06;;;;;;;;;;;;;;;15.30;74.55;97558.03;30001;982;1853;-58
2022/07/12 00:14:37;;;;;;;;;;;;;;;15.29;73.85;97550.97;30001;982;1876;-58
2022/07/12 00:15:08;;;;;;;;;;;;;;;15.30;73.70;97552.59;30001;983;1875;-58
2022/07/12 00:15:39;;;;;;;;;;;;;;;15.32;73.53;97552.28;30001;983;1875;-58
2022/07/12 00:16:13;;;;;;;;;;;;;;;15.32;73.34;97547.63;30001;983;1875;-58
2022/07/12 00:16:44;;;;;;;;;;;;;;;15.34;73.30;97552.78;30001;983;1875;-58
2022/07/12 00:17:15;;;;;;;;;;;;;;;15.32;73.42;97550.34;30001;983;1875;-57
2022/07/12 00:17:46;;;;;;;;;;;;;;;15.34;73.29;97547.31;30001;983;1875;-58
2022/07/12 00:18:18;;;;;;;;;;;;;;;15.34;73.32;97552.78;30001;983;1875;-57
2022/07/12 00:18:49;;;;;;;;;;;;;;;15.34;73.06;97553.59;30001;983;1875;-58
2022/07/12 00:19:20;;;;;;;;;;;;;;;15.35;73.07;97555.22;30001;984;1861;-57
2022/07/12 00:19:51;;;;;;;;;;;;;;;15.36;73.15;97551.34;30001;982;1871;-58
2022/07/12 00:20:22;;;;;;;;;;;;;;;15.36;73.18;97548.63;30001;982;1880;-58
2022/07/12 00:20:53;;;;;;;;;;;;;;;15.37;72.86;97549.44;30001;982;1880;-59
2022/07/12 00:21:24;;;;;;;;;;;;;;;15.37;73.04;97547.50;30001;982;1880;-57
2022/07/12 00:21:55;;;;;;;;;;;;;;;15.37;72.70;97547.50;30001;983;1879;-57
2022/07/12 00:22:28;;;;;;;;;;;;;;;15.38;73.07;97554.59;30001;983;1879;-57
2022/07/12 00:22:59;;;;;;;;;;;;;;;15.38;72.91;97549.13;30001;983;1879;-58
2022/07/12 00:23:30;;;;;;;;;;;;;;;15.38;72.87;97554.59;30001;983;1879;-57
2022/07/12 00:24:01;;;;;;;;;;;;;;;15.37;72.66;97554.91;30001;983;1879;-57
2022/07/12 00:24:33;;;;;;;;;;;;;;;15.36;72.78;97551.34;30001;983;1866;-58
2022/07/12 00:25:04;;;;;;;;;;;;;;;15.37;72.93;97552.16;30001;983;1870;-58
2022/07/12 00:25:35;;;;;;;;;;;;;;;15.36;73.46;97545.88;30001;983;1879;-58
2022/07/12 00:26:06;;;;;;;;;;;;;;;15.35;73.22;97560.69;30001;983;1879;-58
2022/07/12 00:26:37;;;;;;;;;;;;;;;15.34;73.22;97552.78;30001;983;1879;-58
2022/07/12 00:27:07;;;;;;;;;;;;;;;15.34;72.82;97548.13;30001;982;1880;-58
2022/07/12 00:27:39;;;;;;;;;;;;;;;15.34;73.16;97548.13;30001;982;1880;-58
2022/07/12 00:28:10;;;;;;;;;;;;;;;15.35;72.86;97549.75;30001;982;1879;-58
2022/07/12 00:28:41;;;;;;;;;;;;;;;15.35;73.12;97549.75;30001;982;1880;-58
2022/07/12 00:29:12;;;;;;;;;;;;;;;15.36;73.00;97551.34;30001;982;1880;-57
2022/07/12 00:29:43;;;;;;;;;;;;;;;15.35;73.29;97555.22;30001;983;1866;-58
2022/07/12 00:30:14;;;;;;;;;;;;;;;15.33;73.06;97554.69;30001;983;1857;-58
2022/07/12 00:30:45;;;;;;;;;;;;;;;15.32;73.41;97560.47;30001;983;1879;-59
2022/07/12 00:31:16;;;;;;;;;;;;;;;15.30;72.95;97547.13;30001;983;1879;-58
2022/07/12 00:31:47;;;;;;;;;;;;;;;15.29;73.45;97553.69;30001;983;1879;-58
2022/07/12 00:32:18;;;;;;;;;;;;;;;15.26;74.22;97551.56;30001;983;1879;-58
2022/07/12 00:32:49;;;;;;;;;;;;;;;15.20;75.01;97554.75;30001;983;1879;-58
2022/07/12 00:33:20;;;;;;;;;;;;;;;15.17;74.26;97547.16;30001;983;1879;-58
2022/07/12 00:33:51;;;;;;;;;;;;;;;15.17;74.35;97552.63;30001;983;1879;-58
2022/07/12 00:34:21;;;;;;;;;;;;;;;15.17;73.94;97552.63;30001;982;1880;-58
2022/07/12 00:34:52;;;;;;;;;;;;;;;15.18;74.31;97543.31;30001;982;1880;-58
2022/07/12 00:35:23;;;;;;;;;;;;;;;15.17;74.14;97553.44;30001;982;1866;-57
2022/07/12 00:35:54;;;;;;;;;;;;;;;15.16;74.80;97546.34;30001;982;1871;-57
2022/07/12 00:36:25;;;;;;;;;;;;;;;15.14;74.87;97543.09;30001;982;1880;-58
2022/07/12 00:36:56;;;;;;;;;;;;;;;15.13;75.20;97551.62;30001;983;1879;-57
2022/07/12 00:37:26;;;;;;;;;;;;;;;15.10;75.14;97550.31;30001;983;1879;-58
2022/07/12 00:37:58;;;;;;;;;;;;;;;15.07;75.55;97543.53;30001;983;1879;-59
2022/07/12 00:38:29;;;;;;;;;;;;;;;15.07;75.45;97553.63;30001;983;1879;-58
2022/07/12 00:38:59;;;;;;;;;;;;;;;15.05;74.92;97544.94;30001;983;1879;-58
2022/07/12 00:39:30;;;;;;;;;;;;;;;15.06;74.76;97557.50;30001;983;1879;-58
2022/07/12 00:40:03;;;;;;;;;;;;;;;15.05;74.68;97553.94;30001;983;1866;-58
2022/07/12 00:40:34;;;;;;;;;;;;;;;15.06;74.42;97546.56;30001;983;1871;-58
2022/07/12 00:41:05;;;;;;;;;;;;;;;15.07;74.44;97550.91;30001;983;1879;-58
2022/07/12 00:41:36;;;;;;;;;;;;;;;15.07;74.42;97548.19;30001;983;1879;-58
2022/07/12 00:42:06;;;;;;;;;;;;;;;15.06;74.51;97552.84;30001;982;1880;-57
2022/07/12 00:42:41;;;;;;;;;;;;;;;15.07;74.14;97548.97;30001;982;1880;-58
2022/07/12 00:43:12;;;;;;;;;;;;;;;15.09;74.35;97556.88;30001;982;1880;-58
2022/07/12 00:43:43;;;;;;;;;;;;;;;15.08;74.07;97545.13;30001;982;1880;-58
2022/07/12 00:44:13;;;;;;;;;;;;;;;15.09;74.24;97545.94;30001;982;1880;-58
2022/07/12 00:44:44;;;;;;;;;;;;;;;15.09;74.04;97551.41;30001;983;1879;-57
2022/07/12 00:45:15;;;;;;;;;;;;;;;15.09;74.67;97552.22;30001;983;1866;-57
2022/07/12 00:45:46;;;;;;;;;;;;;;;15.08;74.93;97552.53;30002;799;1013;-58
2022/07/12 00:46:20;;;;;;;;;;;;;;;15.05;75.34;97544.94;30001;983;1879;-58
2022/07/12 00:46:51;;;;;;;;;;;;;;;15.03;74.39;97553.44;30001;983;1879;-57
2022/07/12 00:47:42;;;;;;;;;;;;;;;15.04;74.64;97555.06;30001;983;1879;-58
2022/07/12 00:48:13;;;;;;;;;;;;;;;15.05;74.37;97544.94;30001;983;1862;-57
2022/07/12 00:48:45;;;;;;;;;;;;;;;15.04;74.66;97544.13;30001;983;1871;-57
2022/07/12 00:49:16;;;;;;;;;;;;;;;15.05;74.44;97545.75;30001;983;1879;-59
2022/07/12 00:49:47;;;;;;;;;;;;;;;15.05;74.46;97544.94;30001;982;1880;-59
2022/07/12 00:50:20;;;;;;;;;;;;;;;15.05;74.30;97548.47;30001;982;1880;-58
2022/07/12 00:50:50;;;;;;;;;;;;;;;15.05;74.05;97543.00;30001;982;1880;-58
2022/07/12 00:51:21;;;;;;;;;;;;;;;15.05;74.13;97544.94;30001;982;1880;-57
2022/07/12 00:51:54;;;;;;;;;;;;;;;15.06;74.38;97546.56;30001;982;1880;-58
2022/07/12 00:52:25;;;;;;;;;;;;;;;15.06;75.34;97550.09;30001;983;1879;-57
2022/07/12 00:52:56;;;;;;;;;;;;;;;15.03;75.70;97542.50;30001;983;1879;-58
2022/07/12 00:53:29;;;;;;;;;;;;;;;15.03;75.45;97547.16;30001;983;1866;-59
2022/07/12 00:54:00;;;;;;;;;;;;;;;15.01;74.86;97543.94;30001;983;1870;-59
2022/07/12 00:54:30;;;;;;;;;;;;;;;15.01;75.04;97549.38;30001;983;1880;-58
2022/07/12 00:55:02;;;;;;;;;;;;;;;15.00;74.94;97547.78;30001;983;1879;-58
2022/07/12 00:55:32;;;;;;;;;;;;;;;14.99;74.72;97546.97;30001;983;1879;-57
2022/07/12 00:56:05;;;;;;;;;;;;;;;15.00;74.89;97542.31;30001;983;1879;-58
2022/07/12 00:56:36;;;;;;;;;;;;;;;15.01;74.60;97546.66;30001;982;1880;-58
2022/07/12 00:57:07;;;;;;;;;;;;;;;15.00;75.35;97545.03;30001;982;1880;-58
2022/07/12 00:57:41;;;;;;;;;;;;;;;15.00;74.69;97545.03;30001;982;1880;-58
2022/07/12 00:58:12;;;;;;;;;;;;;;;15.00;75.03;97543.12;30001;982;1880;-59
2022/07/12 00:58:44;;;;;;;;;;;;;;;14.99;75.80;97557.91;30001;983;1866;-58
2022/07/12 00:59:14;;;;;;;;;;;;;;;14.97;75.70;97545.66;30001;983;1870;-57
2022/07/12 00:59:45;;;;;;;;;;;;;;;14.96;76.58;97541.28;30001;983;1879;-57
2022/07/12 01:00:18;;;;;;;;;;;;;;;14.92;76.59;97540.28;30001;983;1879;-58
2022/07/12 01:00:49;;;;;;;;;;;;;;;14.90;75.95;97554.25;30001;983;1879;-58
2022/07/12 01:01:21;;;;;;;;;;;;;;;14.90;75.92;97548.78;30001;983;1879;-58
2022/07/12 01:01:51;;;;;;;;;;;;;;;14.91;75.58;97549.59;30001;983;1879;-57
2022/07/12 01:02:23;;;;;;;;;;;;;;;14.91;75.75;97550.41;30001;983;1879;-58
2022/07/12 01:02:54;;;;;;;;;;;;;;;14.92;75.26;97545.75;30001;983;1879;-57
2022/07/12 01:03:27;;;;;;;;;;;;;;;14.92;75.34;97556.69;30001;983;1879;-58
2022/07/12 01:04:00;;;;;;;;;;;;;;;14.94;75.36;97559.91;30001;982;1866;-58
2022/07/12 01:04:31;;;;;;;;;;;;;;;14.93;75.06;97550.09;30001;982;1853;-58
2022/07/12 01:05:04;;;;;;;;;;;;;;;14.93;75.31;97544.63;30001;982;1875;-57
2022/07/12 01:05:35;;;;;;;;;;;;;;;14.94;75.24;97554.44;30001;986;1870;-58
2022/07/12 01:06:07;;;;;;;;;;;;;;;14.94;74.91;97554.44;30001;982;1875;-58
2022/07/12 01:06:37;;;;;;;;;;;;;;;14.94;75.04;97554.44;30001;983;1875;-58
2022/07/12 01:07:08;;;;;;;;;;;;;;;14.95;75.16;97553.34;30001;983;1875;-56
2022/07/12 01:07:40;;;;;;;;;;;;;;;14.95;74.93;97550.59;30001;983;1875;-58
2022/07/12 01:08:12;;;;;;;;;;;;;;;14.95;75.08;97556.88;30001;983;1875;-57
2022/07/12 01:08:43;;;;;;;;;;;;;;;14.95;75.24;97550.59;30001;983;1875;-58
2022/07/12 01:09:14;;;;;;;;;;;;;;;14.95;75.09;97550.59;30001;983;1875;-57
2022/07/12 01:09:45;;;;;;;;;;;;;;;14.94;75.46;97560.72;30001;983;1862;-58
2022/07/12 01:10:16;;;;;;;;;;;;;;;14.94;75.39;97549.00;30001;983;1773;-58
2022/07/12 01:10:48;;;;;;;;;;;;;;;14.94;75.51;97554.44;30001;983;1862;-58
2022/07/12 01:11:20;;;;;;;;;;;;;;;14.93;75.20;97552.84;30001;982;1866;-58
2022/07/12 01:11:51;;;;;;;;;;;;;;;14.93;75.44;97556.38;30001;982;1875;-58
2022/07/12 01:12:23;;;;;;;;;;;;;;;14.93;75.29;97552.84;30001;982;1875;-57
2022/07/12 01:13:03;;;;;;;;;;;;;;;14.93;75.27;97558.28;30001;982;1875;-59
2022/07/12 01:13:37;;;;;;;;;;;;;;;14.93;75.25;97548.19;30001;982;1862;-56
2022/07/12 01:14:08;;;;;;;;;;;;;;;14.92;75.99;97546.56;30001;983;1866;-57
2022/07/12 01:14:40;;;;;;;;;;;;;;;14.92;75.58;97551.22;30001;983;1874;-58
2022/07/12 01:15:11;;;;;;;;;;;;;;;14.92;75.75;97551.22;30001;983;1861;-58
2022/07/12 01:15:44;;;;;;;;;;;;;;;14.89;76.77;97557.31;30001;983;1866;-59
2022/07/12 01:16:17;;;;;;;;;;;;;;;14.86;77.11;97553.25;30001;983;1875;-59
2022/07/12 01:16:48;;;;;;;;;;;;;;;14.86;76.88;97552.47;30001;983;1861;-58
2022/07/12 01:17:20;;;;;;;;;;;;;;;14.85;77.00;97556.31;30001;983;1866;-57
2022/07/12 01:17:51;;;;;;;;;;;;;;;14.84;76.86;97554.69;30001;983;1875;-58
2022/07/12 01:18:22;;;;;;;;;;;;;;;14.82;76.89;97552.25;30001;983;1875;-59
2022/07/12 01:18:53;;;;;;;;;;;;;;;14.81;77.13;97549.81;30001;982;1783;-58
2022/07/12 01:19:25;;;;;;;;;;;;;;;14.80;77.00;97553.66;30001;982;1875;-58
2022/07/12 01:19:57;;;;;;;;;;;;;;;14.80;77.46;97559.12;30001;982;1875;-58
2022/07/12 01:20:28;;;;;;;;;;;;;;;14.78;77.57;97556.69;30001;963;1780;-58
2022/07/12 01:21:03;;;;;;;;;;;;;;;14.78;78.01;97550.44;30001;982;1867;-58
2022/07/12 01:21:36;;;;;;;;;;;;;;;14.75;77.57;97551.84;30001;983;1875;-58
2022/07/12 01:22:10;;;;;;;;;;;;;;;14.77;76.91;97559.72;30001;983;1875;-58
2022/07/12 01:22:41;;;;;;;;;;;;;;;14.77;77.02;97559.72;30001;983;1875;-57
2022/07/12 01:23:13;;;;;;;;;;;;;;;14.78;76.65;97555.88;30001;983;1875;-58
2022/07/12 01:23:45;;;;;;;;;;;;;;;14.78;76.92;97558.62;30001;983;1875;-58
2022/07/12 01:24:18;;;;;;;;;;;;;;;14.78;76.29;97550.44;30001;983;1875;-58
2022/07/12 01:24:49;;;;;;;;;;;;;;;14.79;76.27;97552.03;30001;983;1875;-58
2022/07/12 01:25:20;;;;;;;;;;;;;;;14.80;76.48;97550.94;30001;983;1875;-58
2022/07/12 01:25:52;;;;;;;;;;;;;;;14.80;76.81;97553.66;30001;983;1862;-58
2022/07/12 01:26:23;;;;;;;;;;;;;;;14.80;76.64;97559.12;30001;982;1853;-57
2022/07/12 01:26:54;;;;;;;;;;;;;;;14.80;77.12;97556.41;30001;982;1875;-58
2022/07/12 01:27:25;;;;;;;;;;;;;;;14.77;77.22;97563.28;30001;982;1875;-58
2022/07/12 01:27:56;;;;;;;;;;;;;;;14.77;77.02;97559.72;30001;982;1862;-58
2022/07/12 01:28:27;;;;;;;;;;;;;;;14.77;76.74;97565.19;30001;982;1867;-56
2022/07/12 01:28:59;;;;;;;;;;;;;;;14.77;76.90;97559.72;30001;983;1875;-58
2022/07/12 01:29:30;;;;;;;;;;;;;;;14.77;76.63;97562.47;30001;983;1875;-59
2022/07/12 01:30:03;;;;;;;;;;;;;;;14.77;76.98;97557.81;30001;983;1875;-58
2022/07/12 01:30:34;;;;;;;;;;;;;;;14.79;76.40;97568.44;30001;983;1875;-58
2022/07/12 01:31:05;;;;;;;;;;;;;;;14.79;76.80;97563.78;30001;983;1875;-59
2022/07/12 01:31:36;;;;;;;;;;;;;;;14.80;76.55;97567.31;30001;983;1875;-58
2022/07/12 01:32:25;;;;;;;;;;;;;;;14.80;77.17;97561.87;30001;983;1875;-58
2022/07/12 01:32:57;;;;;;;;;;;;;;;14.79;76.53;97562.97;30001;983;1862;-59
2022/07/12 01:33:28;;;;;;;;;;;;;;;14.79;76.82;97557.50;30001;982;1866;-57
2022/07/12 01:33:59;;;;;;;;;;;;;;;14.79;76.66;97557.50;30001;982;1875;-58
2022/07/12 01:34:30;;;;;;;;;;;;;;;14.79;76.69;97562.97;30001;982;1875;-59
2022/07/12 01:35:02;;;;;;;;;;;;;;;14.79;76.35;97562.97;30001;982;1875;-58
2022/07/12 01:35:35;;;;;;;;;;;;;;;14.79;76.36;97560.25;30001;982;1875;-58
2022/07/12 01:36:07;;;;;;;;;;;;;;;14.80;76.31;97564.59;30001;982;1875;-59
2022/07/12 01:36:39;;;;;;;;;;;;;;;14.81;76.17;97563.47;30001;983;1861;-58
2022/07/12 01:37:12;;;;;;;;;;;;;;;14.81;76.04;97564.28;30001;983;1866;-58
2022/07/12 01:37:43;;;;;;;;;;;;;;;14.81;76.07;97560.75;30001;983;1875;-58
2022/07/12 01:38:15;;;;;;;;;;;;;;;14.81;76.81;97566.22;30001;983;1875;-58
2022/07/12 01:38:46;;;;;;;;;;;;;;;14.79;76.67;97562.97;30001;983;1862;-58
2022/07/12 01:39:18;;;;;;;;;;;;;;;14.77;76.93;97565.19;30001;983;1853;-57
2022/07/12 01:39:50;;;;;;;;;;;;;;;14.77;76.74;97559.72;30001;983;1875;-57
2022/07/12 01:40:21;;;;;;;;;;;;;;;14.78;76.43;97555.88;30001;983;1876;-56
2022/07/12 01:40:52;;;;;;;;;;;;;;;14.78;76.59;97556.69;30001;982;1875;-57
2022/07/12 01:41:23;;;;;;;;;;;;;;;14.78;76.26;97558.62;30001;982;1875;-58
2022/07/12 01:41:54;;;;;;;;;;;;;;;14.79;76.26;97560.25;30001;982;1875;-58
2022/07/12 01:42:26;;;;;;;;;;;;;;;14.80;76.06;97553.66;30001;979;1889;-58
2022/07/12 01:42:57;;;;;;;;;;;;;;;14.79;76.32;97554.78;30001;982;1875;-58
2022/07/12 01:43:29;;;;;;;;;;;;;;;14.80;76.70;97550.94;30001;982;1862;-57
2022/07/12 01:44:00;;;;;;;;;;;;;;;14.78;76.89;97556.69;30001;983;1853;-58
2022/07/12 01:44:31;;;;;;;;;;;;;;;14.78;76.42;97566.81;30001;983;1875;-59
2022/07/12 01:45:04;;;;;;;;;;;;;;;14.77;76.21;97560.53;30001;983;1875;-58
2022/07/12 01:45:34;;;;;;;;;;;;;;;14.77;76.55;97555.09;30001;983;1875;-58
2022/07/12 01:46:05;;;;;;;;;;;;;;;14.78;76.41;97555.88;30001;983;1875;-58
2022/07/12 01:46:37;;;;;;;;;;;;;;;14.78;76.03;97558.62;30001;983;1875;-58
2022/07/12 01:47:08;;;;;;;;;;;;;;;14.79;76.17;97562.97;30001;983;1875;-59
2022/07/12 01:47:39;;;;;;;;;;;;;;;14.77;76.53;97555.09;30001;983;1875;-59
2022/07/12 01:48:10;;;;;;;;;;;;;;;14.77;76.71;97557.00;30001;982;1862;-59
2022/07/12 01:48:40;;;;;;;;;;;;;;;14.74;77.52;97556.50;30001;983;1866;-58
2022/07/12 01:49:11;;;;;;;;;;;;;;;14.72;77.49;97553.25;30001;982;1875;-58
2022/07/12 01:49:42;;;;;;;;;;;;;;;14.72;77.61;97558.72;30001;982;1875;-59
2022/07/12 01:50:13;;;;;;;;;;;;;;;14.69;77.44;97553.84;30001;982;1875;-60
2022/07/12 01:50:44;;;;;;;;;;;;;;;14.67;77.18;97556.09;30001;982;1875;-59
2022/07/12 01:51:14;;;;;;;;;;;;;;;14.66;77.56;97561.84;30001;982;1875;-58
2022/07/12 01:51:45;;;;;;;;;;;;;;;14.66;77.06;97557.19;30001;983;1875;-58
2022/07/12 01:52:17;;;;;;;;;;;;;;;14.65;77.38;97558.31;30001;985;1871;-58
2022/07/12 01:52:48;;;;;;;;;;;;;;;14.65;77.01;97552.84;30001;983;1875;-59
2022/07/12 01:53:20;;;;;;;;;;;;;;;14.66;77.04;97553.66;30001;983;1862;-58
2022/07/12 01:53:51;;;;;;;;;;;;;;;14.67;76.57;97547.88;30001;983;1866;-58
2022/07/12 01:54:23;;;;;;;;;;;;;;;14.68;76.39;97556.88;30001;983;1875;-58
2022/07/12 01:54:54;;;;;;;;;;;;;;;14.69;76.33;97553.84;30001;983;1875;-59
2022/07/12 01:55:25;;;;;;;;;;;;;;;14.70;76.58;97549.22;30001;983;1875;-58
2022/07/12 01:55:56;;;;;;;;;;;;;;;14.71;76.21;97546.16;30001;982;1875;-58
2022/07/12 01:56:27;;;;;;;;;;;;;;;14.71;76.41;97546.16;30001;982;1875;-59
2022/07/12 01:56:58;;;;;;;;;;;;;;;14.71;76.23;97546.16;30001;982;1876;-58
2022/07/12 01:57:29;;;;;;;;;;;;;;;14.70;76.36;97539.09;30001;982;1875;-58
2022/07/12 01:58:00;;;;;;;;;;;;;;;14.71;76.40;97545.38;30001;982;1875;-57
2022/07/12 01:58:31;;;;;;;;;;;;;;;14.71;76.28;97537.97;30001;982;1862;-58
2022/07/12 01:59:02;;;;;;;;;;;;;;;14.71;76.19;97546.16;30001;983;1866;-59
2022/07/12 01:59:33;;;;;;;;;;;;;;;14.72;76.29;97542.31;30001;987;1871;-58
2022/07/12 02:00:05;;;;;;;;;;;;;;;14.73;76.07;97537.69;30001;983;1875;-58
2022/07/12 02:00:37;;;;;;;;;;;;;;;14.73;76.20;97543.94;30001;983;1875;-58
2022/07/12 02:01:09;;;;;;;;;;;;;;;14.74;75.73;97540.09;30001;983;1875;-59
2022/07/12 02:01:40;;;;;;;;;;;;;;;14.74;75.95;97534.62;30001;983;1875;-58
2022/07/12 02:02:11;;;;;;;;;;;;;;;14.75;75.57;97535.44;30001;983;1875;-58
2022/07/12 02:02:44;;;;;;;;;;;;;;;14.77;75.67;97543.34;30001;983;1875;-59
2022/07/12 02:03:14;;;;;;;;;;;;;;;14.77;75.61;97544.16;30001;982;1875;-59
2022/07/12 02:03:45;;;;;;;;;;;;;;;14.79;75.00;97538.38;30001;982;1862;-59
2022/07/12 02:04:17;;;;;;;;;;;;;;;14.81;75.19;97533.44;30001;982;1867;-58
2022/07/12 02:04:48;;;;;;;;;;;;;;;14.82;75.07;97540.50;30001;982;1876;-59
2022/07/12 02:05:19;;;;;;;;;;;;;;;14.83;75.10;97537.47;30001;982;1875;-58
2022/07/12 02:05:49;;;;;;;;;;;;;;;14.85;74.99;97539.91;30001;983;1875;-58
2022/07/12 02:06:20;;;;;;;;;;;;;;;14.86;74.82;97536.06;30001;983;1875;-58
2022/07/12 02:06:52;;;;;;;;;;;;;;;14.88;74.70;97544.78;30001;983;1875;-59
2022/07/12 02:07:26;;;;;;;;;;;;;;;14.88;74.62;97547.50;30001;983;1875;-57
2022/07/12 02:07:57;;;;;;;;;;;;;;;14.88;74.28;97540.13;30001;983;1862;-58
2022/07/12 02:08:28;;;;;;;;;;;;;;;14.89;74.35;97540.91;30001;983;1866;-58
2022/07/12 02:08:59;;;;;;;;;;;;;;;14.89;74.61;97540.91;30001;983;1875;-58
2022/07/12 02:09:29;;;;;;;;;;;;;;;14.88;74.74;97542.84;30001;983;1862;-58
2022/07/12 02:10:00;;;;;;;;;;;;;;;14.88;75.01;97542.03;30001;983;1866;-59
2022/07/12 02:10:31;;;;;;;;;;;;;;;14.87;75.21;97543.16;30001;983;1875;-57
2022/07/12 02:11:02;;;;;;;;;;;;;;;14.86;75.38;97541.53;30001;982;1862;-59
2022/07/12 02:11:33;;;;;;;;;;;;;;;14.85;75.92;97546.19;30001;982;1866;-58
2022/07/12 02:12:04;;;;;;;;;;;;;;;14.82;76.28;97540.50;30001;982;1875;-58
2022/07/12 02:12:36;;;;;;;;;;;;;;;14.80;76.37;97546.28;30001;982;1875;-58
2022/07/12 02:13:07;;;;;;;;;;;;;;;14.80;75.94;97548.19;30001;982;1875;-56
2022/07/12 02:13:38;;;;;;;;;;;;;;;14.79;75.93;97546.59;30001;983;1875;-58
2022/07/12 02:14:10;;;;;;;;;;;;;;;14.78;76.02;97544.97;30001;983;1875;-58
2022/07/12 02:14:41;;;;;;;;;;;;;;;14.77;75.98;97554.28;30001;983;1875;-58
2022/07/12 02:15:12;;;;;;;;;;;;;;;14.76;76.32;97548.00;30001;983;1861;-56
2022/07/12 02:15:42;;;;;;;;;;;;;;;14.74;76.53;97547.50;30001;983;1866;-58
2022/07/12 02:16:14;;;;;;;;;;;;;;;14.72;76.69;97549.72;30001;983;1875;-57
2022/07/12 02:16:47;;;;;;;;;;;;;;;14.69;76.86;97553.84;30001;983;1875;-57
2022/07/12 02:17:20;;;;;;;;;;;;;;;14.67;77.16;97556.09;30001;983;1810;-57
2022/07/12 02:17:51;;;;;;;;;;;;;;;14.65;76.74;97547.37;30001;987;1871;-57
2022/07/12 02:18:22;;;;;;;;;;;;;;;14.65;76.76;97546.56;30001;982;1875;-56
2022/07/12 02:18:53;;;;;;;;;;;;;;;14.64;77.26;97551.22;30001;982;1875;-57
2022/07/12 02:19:24;;;;;;;;;;;;;;;14.62;77.25;97553.44;30001;982;1875;-57
2022/07/12 02:19:58;;;;;;;;;;;;;;;14.61;76.96;97551.00;30001;982;1875;-57
2022/07/12 02:20:29;;;;;;;;;;;;;;;14.60;76.87;97550.22;30001;982;1862;-59
2022/07/12 02:21:00;;;;;;;;;;;;;;;14.61;76.81;97545.56;30001;983;1866;-57
2022/07/12 02:21:31;;;;;;;;;;;;;;;14.59;77.00;97540.41;30001;983;1875;-57
2022/07/12 02:22:02;;;;;;;;;;;;;;;14.60;76.55;97547.47;30002;785;1013;-57
2022/07/12 02:22:34;;;;;;;;;;;;;;;14.58;76.84;97551.62;30001;983;1875;-59
2022/07/12 02:23:05;;;;;;;;;;;;;;;14.57;76.58;97545.34;30001;983;1875;-57
2022/07/12 02:23:36;;;;;;;;;;;;;;;14.56;76.63;97543.72;30001;983;1875;-57
2022/07/12 02:24:07;;;;;;;;;;;;;;;14.58;76.35;97551.62;30001;983;1875;-57
2022/07/12 02:24:38;;;;;;;;;;;;;;;14.58;76.43;97546.97;30001;983;1875;-57
2022/07/12 02:25:09;;;;;;;;;;;;;;;14.59;76.07;97540.41;30001;983;1875;-58
2022/07/12 02:25:40;;;;;;;;;;;;;;;14.61;76.16;97546.37;30001;983;1862;-59
2022/07/12 02:26:12;;;;;;;;;;;;;;;14.62;76.19;97547.19;30001;982;1866;-57
2022/07/12 02:26:43;;;;;;;;;;;;;;;14.61;75.86;97545.56;30001;982;1875;-58
2022/07/12 02:27:14;;;;;;;;;;;;;;;14.61;75.68;97548.28;30001;982;1875;-57
2022/07/12 02:27:45;;;;;;;;;;;;;;;14.60;76.07;97544.75;30001;982;1875;-56
2022/07/12 02:28:16;;;;;;;;;;;;;;;14.59;75.77;97548.59;30001;982;1875;-57
2022/07/12 02:28:47;;;;;;;;;;;;;;;14.58;76.02;97546.97;30001;986;1875;-58
2022/07/12 02:29:18;;;;;;;;;;;;;;;14.58;75.92;97546.97;30001;983;1875;-57
2022/07/12 02:29:50;;;;;;;;;;;;;;;14.57;76.05;97545.34;30001;983;1875;-56
2022/07/12 02:30:21;;;;;;;;;;;;;;;14.56;76.51;97542.91;30001;983;1875;-58
2022/07/12 02:30:52;;;;;;;;;;;;;;;14.52;76.57;97541.94;30001;983;1862;-59
2022/07/12 02:31:23;;;;;;;;;;;;;;;14.51;76.42;97540.31;30001;983;1866;-57
2022/07/12 02:31:55;;;;;;;;;;;;;;;14.47;76.88;97540.09;30001;983;1875;-57
2022/07/12 02:32:25;;;;;;;;;;;;;;;14.47;76.65;97540.09;30001;983;1875;-59
2022/07/12 02:32:58;;;;;;;;;;;;;;;14.46;76.75;97538.47;30001;983;1875;-58
2022/07/12 02:33:29;;;;;;;;;;;;;;;14.46;76.35;97532.22;30001;982;1875;-57
2022/07/12 02:34:00;;;;;;;;;;;;;;;14.47;76.65;97539.28;30001;982;1875;-58
2022/07/12 02:34:32;;;;;;;;;;;;;;;14.47;76.32;97534.62;30001;982;1875;-59
2022/07/12 02:35:06;;;;;;;;;;;;;;;14.46;76.47;97533.03;30001;966;1898;-57
2022/07/12 02:35:36;;;;;;;;;;;;;;;14.47;76.42;97536.56;30001;982;1875;-59
2022/07/12 02:36:09;;;;;;;;;;;;;;;14.47;76.16;97537.38;30001;985;1861;-57
2022/07/12 02:36:46;;;;;;;;;;;;;;;14.48;76.44;97540.91;30001;983;1866;-57
2022/07/12 02:37:16;;;;;;;;;;;;;;;14.48;76.33;97533.53;30001;983;1875;-57
2022/07/12 02:37:47;;;;;;;;;;;;;;;14.49;76.12;97532.41;30001;983;1875;-57
2022/07/12 02:38:20;;;;;;;;;;;;;;;14.49;76.17;97537.88;30001;983;1875;-57
2022/07/12 02:38:51;;;;;;;;;;;;;;;14.50;75.83;97531.31;30001;983;1875;-59
2022/07/12 02:39:25;;;;;;;;;;;;;;;14.51;76.02;97535.66;30001;983;1875;-57
2022/07/12 02:40:54;;;;;;;;;;;;;;;14.52;75.84;97531.81;30001;982;1866;-57
2022/07/12 02:41:25;;;;;;;;;;;;;;;14.53;75.40;97533.44;30001;982;1875;-58
2022/07/12 02:41:59;;;;;;;;;;;;;;;14.54;75.68;97540.53;30001;982;1875;-58
2022/07/12 02:42:31;;;;;;;;;;;;;;;14.57;75.17;97534.41;30001;982;1875;-58
2022/07/12 02:43:02;;;;;;;;;;;;;;;14.57;75.13;97534.41;30001;982;1875;-57
2022/07/12 02:43:33;;;;;;;;;;;;;;;14.59;75.08;97536.84;30001;983;1875;-57
2022/07/12 02:44:05;;;;;;;;;;;;;;;14.59;75.23;97537.66;30001;983;1875;-57
2022/07/12 02:44:36;;;;;;;;;;;;;;;14.62;74.90;97541.72;30001;983;1875;-58
2022/07/12 02:45:12;;;;;;;;;;;;;;;14.62;74.88;97541.72;30001;985;1862;-57
2022/07/12 02:45:43;;;;;;;;;;;;;;;14.63;75.08;97544.13;30001;983;1857;-56
2022/07/12 02:46:14;;;;;;;;;;;;;;;14.65;74.72;97533.72;30001;983;1866;-57
2022/07/12 02:46:45;;;;;;;;;;;;;;;14.66;74.87;97538.06;30001;983;1871;-58
2022/07/12 02:47:16;;;;;;;;;;;;;;;14.67;74.60;97538.87;30001;983;1879;-57
2022/07/12 02:47:47;;;;;;;;;;;;;;;14.67;74.74;97539.69;30001;982;1879;-57
2022/07/12 02:48:20;;;;;;;;;;;;;;;14.68;74.47;97535.84;30001;982;1879;-58
2022/07/12 02:48:54;;;;;;;;;;;;;;;14.68;74.45;97541.31;30001;982;1879;-56
2022/07/12 02:49:24;;;;;;;;;;;;;;;14.69;74.64;97545.66;30001;982;1880;-57